createdAt,value
2017-10-22T00:01:09.411Z,99.99
2017-10-22T00:02:19.391Z,99.99
2017-10-22T00:03:29.681Z,99.99
2017-10-22T00:04:40.009Z,99.99
2017-10-22T00:05:50.565Z,99.99
2017-10-22T00:07:00.861Z,99.99
2017-10-22T00:08:10.856Z,99.99
2017-10-22T00:09:21.156Z,99.99
2017-10-22T00:10:30.816Z,99.99
2017-10-22T00:11:41.371Z,99.99
2017-10-22T00:12:51.339Z,99.99
2017-10-22T00:14:01.334Z,99.99
2017-10-22T00:15:11.635Z,99.99
2017-10-22T00:16:21.598Z,99.99
2017-10-22T00:17:32.158Z,99.99
2017-10-22T00:18:42.127Z,99.99
2017-10-22T00:19:52.422Z,99.99
2017-10-22T00:21:02.719Z,99.99
2017-10-22T00:22:12.379Z,99.99
2017-10-22T00:23:22.917Z,99.99
2017-10-22T00:24:33.213Z,99.99
2017-10-22T00:25:43.522Z,99.99
2017-10-22T00:26:53.827Z,99.99
2017-10-22T00:28:03.785Z,99.99
2017-10-22T00:29:14.329Z,99.99
2017-10-22T00:30:24.637Z,99.99
2017-10-22T00:31:34.955Z,99.99
2017-10-22T00:32:45.236Z,99.99
2017-10-22T00:33:55.555Z,99.99
2017-10-22T00:35:06.120Z,99.99
2017-10-22T00:36:16.428Z,99.99
2017-10-22T00:37:26.721Z,99.99
2017-10-22T00:38:36.697Z,99.99
2017-10-22T00:39:46.667Z,99.85
2017-10-22T00:40:57.234Z,98.61
2017-10-22T00:42:07.199Z,96.7
2017-10-22T00:43:17.499Z,94.65
2017-10-22T00:44:27.817Z,91.5
2017-10-22T00:45:38.112Z,90.88
2017-10-22T00:46:48.666Z,90.22
2017-10-22T00:47:58.633Z,88.45
2017-10-22T00:49:08.620Z,87.88
2017-10-22T00:50:18.604Z,85.78
2017-10-22T00:51:28.892Z,84.55
2017-10-22T00:52:39.444Z,83.31
2017-10-22T00:53:49.735Z,82.92
2017-10-22T00:55:00.032Z,82.35
2017-10-22T00:56:10.339Z,82.07
2017-10-22T00:57:20.630Z,81.59
2017-10-22T00:58:31.182Z,80.73
2017-10-22T00:59:41.483Z,80.35
2017-10-22T01:00:51.134Z,80.39
2017-10-22T01:02:01.434Z,79.88
2017-10-22T01:03:11.751Z,79.63
2017-10-22T01:04:22.305Z,78.86
2017-10-22T01:05:32.598Z,78.73
2017-10-22T01:06:42.899Z,78.64
2017-10-22T01:07:53.194Z,78.44
2017-10-22T01:09:03.501Z,78.35
2017-10-22T01:10:14.112Z,77.4
2017-10-22T01:11:24.402Z,76.92
2017-10-22T01:12:34.360Z,76.44
2017-10-22T01:13:44.328Z,76.35
2017-10-22T01:14:54.301Z,75.68
2017-10-22T01:16:04.864Z,75.4
2017-10-22T01:17:15.190Z,75.11
2017-10-22T01:18:25.171Z,75.11
2017-10-22T01:19:35.160Z,74.35
2017-10-22T01:20:45.468Z,74.35
2017-10-22T01:21:55.690Z,73.87
2017-10-22T01:23:05.982Z,74.35
2017-10-22T01:24:15.633Z,74.35
2017-10-22T01:25:25.932Z,74.06
2017-10-22T01:26:36.222Z,73.62
2017-10-22T01:27:46.773Z,73.33
2017-10-22T01:28:56.749Z,73.21
2017-10-22T01:30:07.055Z,73.01
2017-10-22T01:31:17.378Z,73.11
2017-10-22T01:32:27.676Z,73.01
2017-10-22T01:33:37.908Z,73.05
2017-10-22T01:34:48.198Z,72.76
2017-10-22T01:35:58.182Z,72.82
2017-10-22T01:37:08.498Z,72.57
2017-10-22T01:38:18.136Z,72.76
2017-10-22T01:39:28.688Z,72.96
2017-10-22T01:40:38.997Z,72.38
2017-10-22T01:41:49.305Z,72.28
2017-10-22T01:42:59.589Z,72.38
2017-10-22T01:44:09.912Z,71.91
2017-10-22T01:45:20.459Z,71.91
2017-10-22T01:46:30.124Z,71.52
2017-10-22T01:47:40.403Z,71.91
2017-10-22T01:48:50.362Z,71.33
2017-10-22T01:50:00.664Z,71.52
2017-10-22T01:51:11.207Z,71.43
2017-10-22T01:52:21.508Z,71.04
2017-10-22T01:53:31.810Z,71.04
2017-10-22T01:54:41.774Z,71.33
2017-10-22T01:55:52.070Z,70.76
2017-10-22T01:57:02.615Z,70.67
2017-10-22T01:58:12.914Z,70.47
2017-10-22T01:59:23.213Z,70.86
2017-10-22T02:00:33.520Z,70
2017-10-22T02:01:43.812Z,69.62
2017-10-22T02:02:54.058Z,69.71
2017-10-22T02:04:04.358Z,69.62
2017-10-22T02:05:14.643Z,69.23
2017-10-22T02:06:24.281Z,69.43
2017-10-22T02:07:33.918Z,69.43
2017-10-22T02:08:44.465Z,69.52
2017-10-22T02:09:54.768Z,69.43
2017-10-22T02:11:05.061Z,69.62
2017-10-22T02:12:15.366Z,69.33
2017-10-22T02:13:25.659Z,69.33
2017-10-22T02:14:36.209Z,69.23
2017-10-22T02:15:46.541Z,69.62
2017-10-22T02:16:56.834Z,69.14
2017-10-22T02:18:07.140Z,69.14
2017-10-22T02:19:17.094Z,68.95
2017-10-22T02:20:27.323Z,69.04
2017-10-22T02:21:37.320Z,68.95
2017-10-22T02:22:47.307Z,68.85
2017-10-22T02:23:57.277Z,68.76
2017-10-22T02:25:07.254Z,69.04
2017-10-22T02:26:17.795Z,68.76
2017-10-22T02:27:28.091Z,68.57
2017-10-22T02:28:38.394Z,68.57
2017-10-22T02:29:48.709Z,68.76
2017-10-22T02:30:58.673Z,68.85
2017-10-22T02:32:08.898Z,68.38
2017-10-22T02:33:19.221Z,68.38
2017-10-22T02:34:29.191Z,68.38
2017-10-22T02:35:39.506Z,68.57
2017-10-22T02:36:49.792Z,68.09
2017-10-22T02:38:00.400Z,68.18
2017-10-22T02:39:10.696Z,68.09
2017-10-22T02:40:20.997Z,68.28
2017-10-22T02:41:30.965Z,68.09
2017-10-22T02:42:40.949Z,68.28
2017-10-22T02:43:51.167Z,68.18
2017-10-22T02:45:01.472Z,68.28
2017-10-22T02:46:11.767Z,68.28
2017-10-22T02:47:22.081Z,68.47
2017-10-22T02:48:32.403Z,68.38
2017-10-22T02:49:42.949Z,68.18
2017-10-22T02:50:53.237Z,68.38
2017-10-22T02:52:03.545Z,68.47
2017-10-22T02:53:13.841Z,68.28
2017-10-22T02:54:23.809Z,68.47
2017-10-22T02:55:34.026Z,68.38
2017-10-22T02:56:44.328Z,68.28
2017-10-22T02:57:54.627Z,68.28
2017-10-22T02:59:04.922Z,68.38
2017-10-22T03:00:14.897Z,68.09
2017-10-22T03:01:24.800Z,68.38
2017-10-22T03:02:35.088Z,68.28
2017-10-22T03:03:45.058Z,68.38
2017-10-22T03:04:55.350Z,68.18
2017-10-22T03:06:05.653Z,68.18
2017-10-22T03:07:15.872Z,67.99
2017-10-22T03:08:26.166Z,68.18
2017-10-22T03:09:36.454Z,68.18
2017-10-22T03:10:46.744Z,68.18
2017-10-22T03:11:57.031Z,67.99
2017-10-22T03:13:07.595Z,69.14
2017-10-22T03:14:17.887Z,68.66
2017-10-22T03:15:27.877Z,68.66
2017-10-22T03:16:38.174Z,68.85
2017-10-22T03:17:48.491Z,68.95
2017-10-22T03:18:58.715Z,69.14
2017-10-22T03:20:08.676Z,69.52
2017-10-22T03:21:18.650Z,69.62
2017-10-22T03:22:28.939Z,70.09
2017-10-22T03:23:39.237Z,70
2017-10-22T03:24:49.468Z,70.28
2017-10-22T03:25:59.759Z,69.71
2017-10-22T03:27:10.060Z,70.86
2017-10-22T03:28:20.348Z,70.95
2017-10-22T03:29:30.640Z,70.95
2017-10-22T03:30:40.873Z,71.33
2017-10-22T03:31:51.174Z,71.33
2017-10-22T03:33:01.145Z,72
2017-10-22T03:34:11.128Z,72.96
2017-10-22T03:35:20.789Z,73.33
2017-10-22T03:36:31.347Z,74.1
2017-10-22T03:37:41.312Z,74.1
2017-10-22T03:38:51.602Z,73.91
2017-10-22T03:40:01.888Z,74.57
2017-10-22T03:41:11.855Z,74.57
2017-10-22T03:42:22.401Z,74.86
2017-10-22T03:43:32.695Z,75.53
2017-10-22T03:44:42.996Z,76.77
2017-10-22T03:45:53.288Z,76.86
2017-10-22T03:47:03.573Z,77.82
2017-10-22T03:48:13.791Z,79.72
2017-10-22T03:49:23.427Z,79.91
2017-10-22T03:50:33.733Z,79.82
2017-10-22T03:51:44.016Z,79.72
2017-10-22T03:52:53.985Z,80.01
2017-10-22T03:54:04.537Z,81.15
2017-10-22T03:55:14.174Z,80.58
2017-10-22T03:56:24.466Z,81.73
2017-10-22T03:57:34.442Z,81.73
2017-10-22T03:58:44.737Z,81.44
2017-10-22T03:59:55.282Z,81.63
2017-10-22T04:01:05.265Z,82.11
2017-10-22T04:02:15.565Z,82.01
2017-10-22T04:03:25.542Z,81.92
2017-10-22T04:04:35.843Z,82.11
2017-10-22T04:05:46.402Z,81.82
2017-10-22T04:06:56.379Z,82.01
2017-10-22T04:08:06.674Z,82.3
2017-10-22T04:09:16.639Z,82.59
2017-10-22T04:10:26.927Z,82.11
2017-10-22T04:11:37.474Z,82.49
2017-10-22T04:12:47.772Z,81.82
2017-10-22T04:13:58.078Z,82.01
2017-10-22T04:15:08.058Z,82.59
2017-10-22T04:16:18.361Z,82.49
2017-10-22T04:17:28.903Z,82.59
2017-10-22T04:18:39.201Z,81.92
2017-10-22T04:19:49.508Z,82.59
2017-10-22T04:20:59.485Z,82.4
2017-10-22T04:22:09.770Z,82.59
2017-10-22T04:23:20.302Z,82.49
2017-10-22T04:24:30.596Z,82.78
2017-10-22T04:25:40.565Z,82.01
2017-10-22T04:26:50.532Z,82.11
2017-10-22T04:28:00.491Z,81.92
2017-10-22T04:29:11.032Z,82.11
2017-10-22T04:30:21.324Z,82.78
2017-10-22T04:31:31.285Z,82.01
2017-10-22T04:32:41.589Z,82.11
2017-10-22T04:33:51.884Z,82.87
2017-10-22T04:35:02.448Z,82.11
2017-10-22T04:36:12.429Z,82.2
2017-10-22T04:37:22.730Z,82.2
2017-10-22T04:38:32.695Z,82.01
2017-10-22T04:39:42.999Z,82.11
2017-10-22T04:40:53.216Z,82.11
2017-10-22T04:42:03.196Z,82.2
2017-10-22T04:43:13.491Z,82.01
2017-10-22T04:44:23.451Z,81.82
2017-10-22T04:45:33.796Z,81.73
2017-10-22T04:46:44.016Z,81.92
2017-10-22T04:47:53.998Z,82.11
2017-10-22T04:49:03.987Z,81.92
2017-10-22T04:50:14.295Z,81.82
2017-10-22T04:51:24.596Z,81.54
2017-10-22T04:52:35.156Z,81.63
2017-10-22T04:53:45.494Z,81.54
2017-10-22T04:54:55.788Z,81.54
2017-10-22T04:56:05.433Z,81.54
2017-10-22T04:57:15.409Z,81.73
2017-10-22T04:58:25.627Z,81.73
2017-10-22T04:59:35.917Z,81.82
2017-10-22T05:00:45.554Z,81.63
2017-10-22T05:01:55.858Z,81.63
2017-10-22T05:03:06.157Z,81.73
2017-10-22T05:04:16.705Z,81.54
2017-10-22T05:05:26.981Z,81.54
2017-10-22T05:06:36.964Z,81.54
2017-10-22T05:07:47.256Z,81.54
2017-10-22T05:08:57.551Z,81.63
2017-10-22T05:10:08.109Z,81.63
2017-10-22T05:11:18.409Z,82.01
2017-10-22T05:12:28.703Z,81.73
2017-10-22T05:13:39.003Z,81.92
2017-10-22T05:14:48.969Z,81.82
2017-10-22T05:15:59.187Z,81.73
2017-10-22T05:17:09.480Z,81.63
2017-10-22T05:18:19.780Z,81.35
2017-10-22T05:19:30.074Z,81.44
2017-10-22T05:20:40.370Z,82.01
2017-10-22T05:21:50.914Z,81.54
2017-10-22T05:23:01.211Z,81.54
2017-10-22T05:24:11.497Z,82.2
2017-10-22T05:25:21.792Z,83.16
2017-10-22T05:26:32.088Z,83.25
2017-10-22T05:27:42.635Z,84.2
2017-10-22T05:28:52.280Z,84.59
2017-10-22T05:30:02.581Z,84.88
2017-10-22T05:31:12.543Z,84.78
2017-10-22T05:32:22.183Z,85.06
2017-10-22T05:33:32.413Z,84.88
2017-10-22T05:34:42.053Z,84.78
2017-10-22T05:35:51.699Z,85.83
2017-10-22T05:37:01.648Z,85.83
2017-10-22T05:38:11.948Z,85.45
2017-10-22T05:39:22.501Z,85.64
2017-10-22T05:40:32.787Z,85.93
2017-10-22T05:41:42.763Z,86.21
2017-10-22T05:42:52.729Z,86.3
2017-10-22T05:44:03.025Z,85.83
2017-10-22T05:45:13.241Z,86.49
2017-10-22T05:46:23.529Z,86.11
2017-10-22T05:47:33.817Z,87.35
2017-10-22T05:48:44.107Z,87.93
2017-10-22T05:49:54.397Z,88.4
2017-10-22T05:51:04.960Z,88.78
2017-10-22T05:52:15.270Z,89.17
2017-10-22T05:53:25.569Z,89.64
2017-10-22T05:54:35.890Z,89.45
2017-10-22T05:55:46.187Z,90.03
2017-10-22T05:56:56.793Z,90.03
2017-10-22T05:58:07.110Z,89.83
2017-10-22T05:59:17.418Z,90.79
2017-10-22T06:00:27.393Z,91.55
2017-10-22T06:01:37.689Z,93.08
2017-10-22T06:02:47.904Z,93.74
2017-10-22T06:03:58.199Z,94.32
2017-10-22T06:05:08.509Z,94.41
2017-10-22T06:06:18.477Z,94.51
2017-10-22T06:07:28.448Z,95.17
2017-10-22T06:08:38.999Z,95.84
2017-10-22T06:09:48.654Z,97.08
2017-10-22T06:10:58.632Z,97.66
2017-10-22T06:12:09.024Z,99.85
2017-10-22T06:13:19.316Z,99.27
2017-10-22T06:14:29.919Z,99.99
2017-10-22T06:15:40.217Z,99.99
2017-10-22T06:16:50.189Z,99.99
2017-10-22T06:18:00.498Z,99.99
2017-10-22T06:19:10.467Z,99.99
2017-10-22T06:20:21.008Z,99.99
2017-10-22T06:21:31.295Z,99.99
2017-10-22T06:22:41.256Z,99.99
2017-10-22T06:23:51.587Z,99.99
2017-10-22T06:25:01.880Z,99.99
2017-10-22T06:26:12.101Z,99.99
2017-10-22T06:27:22.067Z,99.99
2017-10-22T06:28:32.367Z,99.99
2017-10-22T06:29:42.341Z,99.99
2017-10-22T06:30:52.632Z,99.99
2017-10-22T06:32:03.171Z,99.99
2017-10-22T06:33:13.489Z,99.99
2017-10-22T06:34:23.788Z,99.99
2017-10-22T06:35:34.078Z,99.99
2017-10-22T06:36:44.371Z,99.99
2017-10-22T06:37:54.935Z,99.99
2017-10-22T06:39:04.577Z,99.99
2017-10-22T06:40:14.872Z,99.99
2017-10-22T06:41:25.159Z,99.99
2017-10-22T06:42:35.455Z,99.99
2017-10-22T06:43:45.673Z,99.99
2017-10-22T06:44:55.639Z,99.99
2017-10-22T06:46:05.940Z,99.99
2017-10-22T06:47:15.904Z,99.99
2017-10-22T06:48:26.192Z,99.99
2017-10-22T06:49:36.425Z,99.99
2017-10-22T06:50:46.405Z,99.99
2017-10-22T06:51:56.711Z,99.99
2017-10-22T06:53:07.011Z,99.99
2017-10-22T06:54:17.306Z,99.99
2017-10-22T06:55:27.855Z,99.99
2017-10-22T06:56:38.147Z,99.99
2017-10-22T06:57:48.436Z,99.99
2017-10-22T06:58:58.401Z,99.99
2017-10-22T07:00:08.370Z,99.99
2017-10-22T07:01:18.952Z,99.99
2017-10-22T07:02:29.260Z,99.99
2017-10-22T07:03:39.567Z,99.99
2017-10-22T07:04:49.854Z,99.99
2017-10-22T07:06:00.151Z,99.99
2017-10-22T07:07:10.712Z,99.99
2017-10-22T07:08:21.014Z,99.99
2017-10-22T07:09:31.308Z,99.99
2017-10-22T07:10:41.601Z,99.99
2017-10-22T07:11:51.568Z,99.99
2017-10-22T07:13:02.120Z,99.99
2017-10-22T07:14:12.405Z,99.99
2017-10-22T07:15:22.381Z,99.99
2017-10-22T07:16:32.346Z,99.99
2017-10-22T07:17:42.311Z,99.99
2017-10-22T07:18:52.854Z,99.99
2017-10-22T07:20:03.173Z,99.99
2017-10-22T07:21:13.157Z,99.99
2017-10-22T07:22:23.443Z,99.99
2017-10-22T07:23:33.421Z,99.99
2017-10-22T07:24:43.971Z,99.99
2017-10-22T07:25:53.936Z,99.99
2017-10-22T07:27:04.226Z,99.99
2017-10-22T07:28:14.528Z,99.99
2017-10-22T07:29:24.841Z,99.99
2017-10-22T07:30:34.735Z,99.99
2017-10-22T07:31:45.038Z,99.99
2017-10-22T07:32:55.326Z,99.99
2017-10-22T07:34:05.306Z,99.99
2017-10-22T07:35:14.969Z,99.99
2017-10-22T07:36:24.912Z,99.99
2017-10-22T07:37:35.234Z,99.99
2017-10-22T07:38:45.530Z,99.99
2017-10-22T07:39:55.833Z,99.99
2017-10-22T07:41:05.497Z,99.99
2017-10-22T07:42:16.116Z,99.99
2017-10-22T07:43:26.413Z,99.99
2017-10-22T07:44:36.716Z,99.99
2017-10-22T07:45:47.022Z,99.99
2017-10-22T07:46:57.326Z,99.99
2017-10-22T07:48:07.894Z,99.99
2017-10-22T07:49:18.201Z,99.99
2017-10-22T07:50:28.185Z,99.99
2017-10-22T07:51:37.825Z,99.99
2017-10-22T07:52:47.789Z,99.99
2017-10-22T07:53:58.013Z,99.99
2017-10-22T07:55:08.309Z,99.99
2017-10-22T07:56:18.804Z,99.99
2017-10-22T07:57:29.188Z,99.99
2017-10-22T07:58:39.488Z,99.99
2017-10-22T07:59:50.046Z,99.99
2017-10-22T08:01:00.337Z,99.99
2017-10-22T08:02:10.682Z,99.99
2017-10-22T08:03:20.997Z,99.99
2017-10-22T08:04:31.298Z,99.99
2017-10-22T08:05:41.848Z,99.99
2017-10-22T08:06:52.146Z,99.99
2017-10-22T08:08:02.118Z,99.99
2017-10-22T08:09:12.415Z,99.99
2017-10-22T08:10:22.402Z,99.99
2017-10-22T08:11:32.951Z,99.99
2017-10-22T08:12:43.265Z,99.99
2017-10-22T08:13:53.559Z,99.99
2017-10-22T08:15:03.542Z,99.99
2017-10-22T08:16:13.511Z,99.99
2017-10-22T08:17:23.736Z,99.99
2017-10-22T08:18:34.036Z,99.99
2017-10-22T08:19:44.332Z,99.99
2017-10-22T08:20:54.311Z,99.99
2017-10-22T08:22:04.831Z,99.99
2017-10-22T08:23:15.077Z,99.99
2017-10-22T08:24:25.061Z,99.99
2017-10-22T08:25:35.369Z,99.99
2017-10-22T08:26:45.663Z,99.99
2017-10-22T08:27:55.650Z,99.99
2017-10-22T08:29:06.202Z,99.99
2017-10-22T08:30:16.505Z,99.99
2017-10-22T08:31:26.811Z,99.99
2017-10-22T08:32:36.469Z,99.99
2017-10-22T08:33:46.773Z,99.99
2017-10-22T08:34:56.666Z,99.99
2017-10-22T08:36:06.303Z,99.99
2017-10-22T08:37:16.611Z,99.99
2017-10-22T08:38:26.582Z,99.99
2017-10-22T08:39:36.887Z,99.99
2017-10-22T08:40:47.447Z,99.99
2017-10-22T08:41:57.088Z,99.99
2017-10-22T08:43:07.414Z,99.99
2017-10-22T08:44:17.723Z,99.99
2017-10-22T08:45:27.707Z,99.99
2017-10-22T08:46:38.254Z,99.99
2017-10-22T08:47:48.548Z,99.99
2017-10-22T08:48:58.864Z,99.99
2017-10-22T08:50:09.173Z,99.99
2017-10-22T08:51:19.153Z,99.99
2017-10-22T08:52:29.377Z,99.99
2017-10-22T08:53:39.347Z,99.99
2017-10-22T08:54:49.659Z,99.99
2017-10-22T08:55:59.951Z,99.99
2017-10-22T08:57:10.265Z,99.99
2017-10-22T08:58:20.812Z,99.99
2017-10-22T08:59:31.128Z,99.99
2017-10-22T09:00:41.474Z,99.99
2017-10-22T09:01:51.800Z,99.99
2017-10-22T09:03:02.122Z,99.99
2017-10-22T09:04:12.661Z,99.99
2017-10-22T09:05:23.002Z,99.99
2017-10-22T09:06:33.302Z,99.99
2017-10-22T09:07:43.280Z,99.99
2017-10-22T09:08:53.596Z,98.61
2017-10-22T09:10:03.499Z,97.47
2017-10-22T09:11:13.810Z,96.89
2017-10-22T09:12:23.799Z,97.66
2017-10-22T09:13:34.116Z,97.75
2017-10-22T09:14:44.086Z,97.94
2017-10-22T09:15:54.313Z,97.47
2017-10-22T09:17:04.289Z,97.85
2017-10-22T09:18:14.265Z,97.94
2017-10-22T09:19:24.564Z,98.42
2017-10-22T09:20:34.876Z,98.61
2017-10-22T09:21:45.101Z,98.13
2017-10-22T09:22:55.068Z,98.61
2017-10-22T09:24:05.057Z,98.56
2017-10-22T09:25:15.369Z,98.75
2017-10-22T09:26:25.363Z,98.66
2017-10-22T09:27:35.921Z,98.8
2017-10-22T09:28:45.902Z,98.94
2017-10-22T09:29:56.210Z,97.89
2017-10-22T09:31:06.536Z,98.37
2017-10-22T09:32:16.832Z,97.85
2017-10-22T09:33:27.056Z,97.85
2017-10-22T09:34:37.033Z,97.08
2017-10-22T09:35:46.999Z,95.41
2017-10-22T09:36:56.977Z,94.93
2017-10-22T09:38:07.477Z,95.03
2017-10-22T09:39:17.375Z,93.84
2017-10-22T09:40:27.677Z,91.35
2017-10-22T09:41:37.645Z,91.68
2017-10-22T09:42:47.993Z,92.16
2017-10-22T09:43:58.311Z,90.82
2017-10-22T09:45:08.575Z,91.59
2017-10-22T09:46:18.877Z,91.2
2017-10-22T09:47:29.193Z,90.44
2017-10-22T09:48:39.960Z,90.68
2017-10-22T09:49:50.283Z,90.97
2017-10-22T09:51:00.511Z,91.06
2017-10-22T09:52:10.817Z,90.88
2017-10-22T09:53:20.796Z,90.97
2017-10-22T09:54:30.787Z,90.39
2017-10-22T09:55:41.104Z,90.11
2017-10-22T09:56:51.684Z,89.63
2017-10-22T09:58:01.984Z,90.53
2017-10-22T09:59:11.968Z,90.44
2017-10-22T10:00:21.935Z,89.96
2017-10-22T10:01:32.242Z,89.39
2017-10-22T10:02:42.797Z,88.62
2017-10-22T10:03:53.108Z,88.24
2017-10-22T10:05:03.092Z,89.01
2017-10-22T10:06:13.398Z,88.34
2017-10-22T10:07:23.699Z,88.81
2017-10-22T10:08:34.165Z,86.33
2017-10-22T10:09:44.164Z,86.47
2017-10-22T10:10:54.476Z,86.66
2017-10-22T10:12:04.478Z,87.81
2017-10-22T10:13:14.809Z,87.23
2017-10-22T10:14:25.363Z,86.66
2017-10-22T10:15:35.667Z,85.41
2017-10-22T10:16:45.970Z,85.41
2017-10-22T10:17:56.295Z,85.13
2017-10-22T10:19:05.968Z,84.36
2017-10-22T10:20:16.202Z,84.23
2017-10-22T10:21:26.515Z,85.38
2017-10-22T10:22:36.512Z,85.47
2017-10-22T10:23:46.812Z,85.66
2017-10-22T10:24:56.800Z,84.52
2017-10-22T10:26:07.345Z,84.89
2017-10-22T10:27:17.315Z,84.32
2017-10-22T10:28:27.617Z,84.13
2017-10-22T10:29:37.920Z,83.65
2017-10-22T10:30:48.219Z,83.94
2017-10-22T10:31:58.446Z,84.32
2017-10-22T10:33:08.782Z,84.8
2017-10-22T10:34:19.105Z,84.61
2017-10-22T10:35:29.409Z,85.18
2017-10-22T10:36:39.397Z,85.57
2017-10-22T10:37:49.950Z,85.38
2017-10-22T10:38:59.935Z,85.75
2017-10-22T10:40:10.256Z,86.23
2017-10-22T10:41:20.570Z,84.8
2017-10-22T10:42:30.867Z,84.8
2017-10-22T10:43:41.412Z,85.66
2017-10-22T10:44:51.704Z,84.13
2017-10-22T10:46:02.470Z,83.46
2017-10-22T10:47:12.766Z,83.37
2017-10-22T10:48:23.083Z,83.56
2017-10-22T10:49:33.336Z,83.56
2017-10-22T10:50:43.648Z,83.94
2017-10-22T10:51:53.947Z,83.84
2017-10-22T10:53:03.920Z,84.23
2017-10-22T10:54:13.577Z,84.85
2017-10-22T10:55:24.204Z,84.38
2017-10-22T10:56:34.225Z,84.85
2017-10-22T10:57:44.216Z,83.42
2017-10-22T10:58:54.514Z,83.75
2017-10-22T11:00:04.808Z,82.22
2017-10-22T11:01:15.362Z,82.31
2017-10-22T11:02:25.344Z,81.65
2017-10-22T11:03:35.638Z,81.84
2017-10-22T11:04:45.958Z,81.93
2017-10-22T11:05:55.937Z,80.98
2017-10-22T11:07:06.496Z,81.3
2017-10-22T11:08:16.814Z,79.68
2017-10-22T11:09:27.118Z,80.35
2017-10-22T11:10:37.443Z,80.44
2017-10-22T11:11:47.747Z,81.11
2017-10-22T11:12:57.644Z,80.44
2017-10-22T11:14:07.962Z,80.63
2017-10-22T11:15:17.605Z,81.55
2017-10-22T11:16:26.932Z,82.12
2017-10-22T11:17:37.249Z,82.51
2017-10-22T11:18:47.482Z,83.17
2017-10-22T11:19:57.812Z,82.6
2017-10-22T11:21:08.144Z,82.41
2017-10-22T11:22:18.480Z,82.6
2017-10-22T11:23:28.509Z,81.55
2017-10-22T11:24:39.073Z,82.12
2017-10-22T11:25:49.054Z,80.5
2017-10-22T11:26:59.351Z,79.16
2017-10-22T11:28:09.334Z,78.01
2017-10-22T11:29:19.632Z,77.38
2017-10-22T11:30:29.933Z,76.81
2017-10-22T11:31:40.251Z,77.28
2017-10-22T11:32:50.550Z,77.86
2017-10-22T11:34:00.526Z,77.67
2017-10-22T11:35:10.952Z,77
2017-10-22T11:36:21.549Z,77.57
2017-10-22T11:37:31.864Z,76.62
2017-10-22T11:38:41.869Z,76.42
2017-10-22T11:39:51.862Z,77.19
2017-10-22T11:41:01.532Z,77.48
2017-10-22T11:42:12.136Z,77.57
2017-10-22T11:43:22.472Z,78.3
2017-10-22T11:44:32.800Z,78.78
2017-10-22T11:45:43.109Z,79.83
2017-10-22T11:46:53.419Z,79.35
2017-10-22T11:48:03.989Z,79.98
2017-10-22T11:49:14.282Z,79.31
2017-10-22T11:50:24.258Z,79.98
2017-10-22T11:51:34.582Z,80.36
2017-10-22T11:52:44.877Z,80.07
2017-10-22T11:53:55.102Z,80.55
2017-10-22T11:55:05.411Z,80.74
2017-10-22T11:56:15.388Z,80.46
2017-10-22T11:57:25.702Z,80.74
2017-10-22T11:58:36.015Z,81.51
2017-10-22T11:59:46.237Z,81.51
2017-10-22T12:00:56.541Z,79.98
2017-10-22T12:02:06.519Z,79.98
2017-10-22T12:03:16.835Z,81.03
2017-10-22T12:04:26.820Z,80.07
2017-10-22T12:05:37.440Z,80.17
2017-10-22T12:06:47.413Z,81.03
2017-10-22T12:07:57.711Z,80.93
2017-10-22T12:09:08.025Z,80.84
2017-10-22T12:10:18.008Z,81.13
2017-10-22T12:11:28.285Z,80.93
2017-10-22T12:12:38.592Z,80.84
2017-10-22T12:13:48.896Z,77.92
2017-10-22T12:14:58.886Z,77.57
2017-10-22T12:16:08.909Z,77
2017-10-22T12:17:19.528Z,76.23
2017-10-22T12:18:29.844Z,73.69
2017-10-22T12:19:39.511Z,73.69
2017-10-22T12:20:49.820Z,72.86
2017-10-22T12:22:00.127Z,72.61
2017-10-22T12:23:10.774Z,71.84
2017-10-22T12:24:21.086Z,70.89
2017-10-22T12:25:31.445Z,71.4
2017-10-22T12:26:41.512Z,70.92
2017-10-22T12:27:51.518Z,68.46
2017-10-22T12:29:01.799Z,67.44
2017-10-22T12:30:11.786Z,67.35
2017-10-22T12:31:22.091Z,67.16
2017-10-22T12:32:32.398Z,68.79
2017-10-22T12:33:42.718Z,69.52
2017-10-22T12:34:53.273Z,68.91
2017-10-22T12:36:03.595Z,70.21
2017-10-22T12:37:13.280Z,71.08
2017-10-22T12:38:23.595Z,71.71
2017-10-22T12:39:33.916Z,72.63
2017-10-22T12:40:44.149Z,73.65
2017-10-22T12:41:54.154Z,74.51
2017-10-22T12:43:04.473Z,75.09
2017-10-22T12:44:14.788Z,75.91
2017-10-22T12:45:25.091Z,76.77
2017-10-22T12:46:35.342Z,77.44
2017-10-22T12:47:45.316Z,78.01
2017-10-22T12:48:55.630Z,78.3
2017-10-22T12:50:05.934Z,78.2
2017-10-22T12:51:16.261Z,78.97
2017-10-22T12:52:26.873Z,78.68
2017-10-22T12:53:36.518Z,77.53
2017-10-22T12:54:46.178Z,77.72
2017-10-22T12:55:56.502Z,74.95
2017-10-22T12:57:06.479Z,75.05
2017-10-22T12:58:17.038Z,74.66
2017-10-22T12:59:27.023Z,75.14
2017-10-22T13:00:37.322Z,74.95
2017-10-22T13:01:47.624Z,74.66
2017-10-22T13:02:57.603Z,75.34
2017-10-22T13:04:08.159Z,75.24
2017-10-22T13:05:18.145Z,75.49
2017-10-22T13:06:27.787Z,75.78
2017-10-22T13:07:38.108Z,75.78
2017-10-22T13:08:47.766Z,75.68
2017-10-22T13:09:58.315Z,76.25
2017-10-22T13:11:08.613Z,76.16
2017-10-22T13:12:18.958Z,75.96
2017-10-22T13:13:29.252Z,76.06
2017-10-22T13:14:39.590Z,76.39
2017-10-22T13:15:50.148Z,76.45
2017-10-22T13:17:00.448Z,76.82
2017-10-22T13:18:10.430Z,75.91
2017-10-22T13:19:20.750Z,76.25
2017-10-22T13:20:31.056Z,76.82
2017-10-22T13:21:40.952Z,76.35
2017-10-22T13:22:50.922Z,76.29
2017-10-22T13:24:00.906Z,76.54
2017-10-22T13:25:11.236Z,77.3
2017-10-22T13:26:21.214Z,77.69
2017-10-22T13:27:31.781Z,78.16
2017-10-22T13:28:41.772Z,78.93
2017-10-22T13:29:52.078Z,78.83
2017-10-22T13:31:02.392Z,78.7
2017-10-22T13:32:12.399Z,79.17
2017-10-22T13:33:22.956Z,79.85
2017-10-22T13:34:33.260Z,79.65
2017-10-22T13:35:43.599Z,79.85
2017-10-22T13:36:53.897Z,79.65
2017-10-22T13:38:03.868Z,80.22
2017-10-22T13:39:14.431Z,80.51
2017-10-22T13:40:24.744Z,80.32
2017-10-22T13:41:34.728Z,80.22
2017-10-22T13:42:45.029Z,80.99
2017-10-22T13:43:55.014Z,80.32
2017-10-22T13:45:05.624Z,79.85
2017-10-22T13:46:15.944Z,79.85
2017-10-22T13:47:26.249Z,80.32
2017-10-22T13:48:36.563Z,80.41
2017-10-22T13:49:46.877Z,80.51
2017-10-22T13:50:57.422Z,80.8
2017-10-22T13:52:07.728Z,80.7
2017-10-22T13:53:18.057Z,80.99
2017-10-22T13:54:28.392Z,81.52
2017-10-22T13:55:38.434Z,81.37
2017-10-22T13:56:48.642Z,81.18
2017-10-22T13:57:58.614Z,81.85
2017-10-22T13:59:08.923Z,82.09
2017-10-22T14:00:19.223Z,82.42
2017-10-22T14:01:29.545Z,82.14
2017-10-22T14:02:39.837Z,82.04
2017-10-22T14:03:50.142Z,81.76
2017-10-22T14:05:00.454Z,82.57
2017-10-22T14:06:10.742Z,82.48
2017-10-22T14:07:20.387Z,82.67
2017-10-22T14:08:30.936Z,82.67
2017-10-22T14:09:41.249Z,83.05
2017-10-22T14:10:51.217Z,82.95
2017-10-22T14:12:00.535Z,83.62
2017-10-22T14:13:10.180Z,83.62
2017-10-22T14:14:20.818Z,83.81
2017-10-22T14:15:30.789Z,83.72
2017-10-22T14:16:41.095Z,83.91
2017-10-22T14:17:51.386Z,83.81
2017-10-22T14:19:01.695Z,83.81
2017-10-22T14:20:12.283Z,83.91
2017-10-22T14:21:22.577Z,84.67
2017-10-22T14:22:32.893Z,84.58
2017-10-22T14:23:43.206Z,84.96
2017-10-22T14:24:53.505Z,84.67
2017-10-22T14:26:03.741Z,85.34
2017-10-22T14:27:14.066Z,85.53
2017-10-22T14:28:24.368Z,85.63
2017-10-22T14:29:34.010Z,85.53
2017-10-22T14:30:44.309Z,85.34
2017-10-22T14:31:54.892Z,85.53
2017-10-22T14:33:05.197Z,85.53
2017-10-22T14:34:15.504Z,85.72
2017-10-22T14:35:25.502Z,85.82
2017-10-22T14:36:35.813Z,86.1
2017-10-22T14:37:46.380Z,86.01
2017-10-22T14:38:56.371Z,85.91
2017-10-22T14:40:06.373Z,85.72
2017-10-22T14:41:16.667Z,85.82
2017-10-22T14:42:26.966Z,85.25
2017-10-22T14:43:37.215Z,85.44
2017-10-22T14:44:47.516Z,85.82
2017-10-22T14:45:57.502Z,86.1
2017-10-22T14:47:07.472Z,86.2
2017-10-22T14:48:17.780Z,86.1
2017-10-22T14:49:28.357Z,85.91
2017-10-22T14:50:38.331Z,86.1
2017-10-22T14:51:48.647Z,86.01
2017-10-22T14:52:58.981Z,86.39
2017-10-22T14:54:09.278Z,85.82
2017-10-22T14:55:19.853Z,86.06
2017-10-22T14:56:30.172Z,86.39
2017-10-22T14:57:40.485Z,86.63
2017-10-22T14:58:50.465Z,86.35
2017-10-22T15:00:00.793Z,86.87
2017-10-22T15:01:11.397Z,86.73
2017-10-22T15:02:21.710Z,86.92
2017-10-22T15:03:31.697Z,87.68
2017-10-22T15:04:41.672Z,87.59
2017-10-22T15:05:51.650Z,87.97
2017-10-22T15:07:02.206Z,88.54